Contact Us:
Email: info@sawbill.com
Phone: (218)663-7150
Fax: (218)663-7980
Mail: 4620 Sawbill Trail
Box 2129
Tofte, MN 55615


Powered by
Movable Type 3.15
 
Sawbill Weather History Archives: April 2003
Current Sawbill Weather History | « March 2003 | May 2003 »


Date

High
Temperature

Low
Temperature

Barometric
Pressure

Relative
Humidity 7AM

9 AM
Temperature

Moisture

Snow

04/30/03 65 33 29.93 63% 34 0  
04/29/03 57 25 29.87 50% 29 0  
04/28/03 67 27 29.74 83% 44 0  
04/27/03 62 29 30.06 73% 29 0  
04/26/03 62 38 29.87 75% 38 .05"  
04/25/03 55 25 29.91 72% 27 0  
04/24/03 63 32 30.03 57% 35 0  
04/23/03 63 27 30.00 33% 38 0  
04/22/03 61 29 30.12 46% 31 0  
04/21/03 55 29 30.14 50% 31 0  
04/20/03 50 34 29.82 82% 35 1"  
04/19/03 50 33 29.68 89% 39 .4"  
04/17/03 34 22 30.09 61% 24 .1" Trace
04/16/03 40 25 30.00 55% 26 .2" Trace
04/15/03 60 29 30.14 45% 30 0  
04/14/03 79 37 29.84 81% 40 .25"  
04/13/03 60 35 29.68 60% 54 0  
04/12/03 53 28 30.08 55% 34 0  
04/11/03 61 29 30.21 74% 31 0  
04/10/03 68 32 29.97 65% 32 0  
04/09/03 63 28 29.93 57% 34 0  
04/08/03 47 23 30.10 55% 28 0  
04/07/03 41 8 30.41 54% 10 0  
04/06/03 39 5 30.41 73% 18 0  
04/05/03 38 5 30.30 56% 16 0  
04/04/03 - - - - - .6" 6"
04/03/03 27 11 30.09 64% 11 0  
04/02/03 29 21 30.14 48% 21 .03" 2"
04/01/03 48 22 30.03 64% 23 0  
 


Home I Trip Planning I Rentals and Outfitting I Reservations I Campgrounds I Sawbill Store I Sawbill News I Contact

© 1997 - 2017, Sawbill Canoe Outfitters, Inc. I Privacy Policy